createdAt,value
2017-11-10T00:01:03.602Z,-81
2017-11-10T00:03:30.438Z,-83
2017-11-10T00:05:57.271Z,-84
2017-11-10T00:08:24.873Z,-82
2017-11-10T00:10:51.749Z,-81
2017-11-10T00:13:18.599Z,-81
2017-11-10T00:15:45.472Z,-83
2017-11-10T00:18:19.590Z,-86
2017-11-10T00:20:46.876Z,-83
2017-11-10T00:23:15.667Z,-83
2017-11-10T00:25:42.501Z,-81
2017-11-10T00:28:10.110Z,-83
2017-11-10T00:30:36.967Z,-84
2017-11-10T00:33:03.858Z,-81
2017-11-10T00:35:30.732Z,-81
2017-11-10T00:37:57.629Z,-83
2017-11-10T00:40:25.214Z,-83
2017-11-10T00:42:53.017Z,-82
2017-11-10T00:45:19.975Z,-82
2017-11-10T00:47:46.846Z,-82
2017-11-10T00:50:13.768Z,-83
2017-11-10T00:52:41.070Z,-86
2017-11-10T00:55:08.144Z,-84
2017-11-10T00:57:35.034Z,-85
2017-11-10T01:00:02.096Z,-85
2017-11-10T01:02:28.978Z,-83
2017-11-10T01:04:55.817Z,-84
2017-11-10T01:07:23.195Z,-83
2017-11-10T01:09:51.760Z,-86
2017-11-10T01:12:18.660Z,-85
2017-11-10T01:14:45.532Z,-85
2017-11-10T01:17:13.893Z,-86
2017-11-10T01:19:41.609Z,-83
2017-11-10T01:22:08.457Z,-85
2017-11-10T01:24:35.289Z,-85
2017-11-10T01:27:02.129Z,-86
2017-11-10T01:29:29.710Z,-86
2017-11-10T01:31:57.281Z,-85
2017-11-10T01:34:24.873Z,-85
2017-11-10T01:36:52.501Z,-85
2017-11-10T01:39:19.333Z,-89
2017-11-10T01:41:46.213Z,-85
2017-11-10T01:44:13.054Z,-85
2017-11-10T01:46:39.925Z,-85
2017-11-10T01:49:06.804Z,-85
2017-11-10T01:51:33.649Z,-85
2017-11-10T01:54:00.581Z,-86
2017-11-10T01:56:28.284Z,-86
2017-11-10T01:58:55.130Z,-86
2017-11-10T02:01:22.039Z,-85
2017-11-10T02:03:48.894Z,-86
2017-11-10T02:06:15.741Z,-88
2017-11-10T02:08:42.612Z,-85
2017-11-10T02:11:09.473Z,-85
2017-11-10T02:13:36.334Z,-87
2017-11-10T02:16:03.890Z,-88
2017-11-10T02:18:30.790Z,-86
2017-11-10T02:20:57.662Z,-88
2017-11-10T02:23:24.585Z,-85
2017-11-10T02:25:51.504Z,-87
2017-11-10T02:28:19.152Z,-87
2017-11-10T02:30:46.067Z,-87
2017-11-10T02:33:13.756Z,-86
2017-11-10T02:35:40.698Z,-83
2017-11-10T02:38:08.319Z,-85
2017-11-10T02:40:35.185Z,-86
2017-11-10T02:43:02.086Z,-85
2017-11-10T02:45:28.991Z,-83
2017-11-10T02:47:55.854Z,-85
2017-11-10T02:50:22.748Z,-85
2017-11-10T02:52:49.625Z,-86
2017-11-10T02:55:16.545Z,-84
2017-11-10T02:57:43.406Z,-85
2017-11-10T03:00:10.340Z,-84
2017-11-10T03:02:37.908Z,-86
2017-11-10T03:05:04.728Z,-85
2017-11-10T03:07:31.640Z,-87
2017-11-10T03:09:59.247Z,-88
2017-11-10T03:12:26.177Z,-85
2017-11-10T03:14:53.914Z,-86
2017-11-10T03:17:20.865Z,-86
2017-11-10T03:19:47.792Z,-87
2017-11-10T03:22:15.430Z,-87
2017-11-10T03:24:42.327Z,-87
2017-11-10T03:27:09.994Z,-86
2017-11-10T03:29:36.825Z,-88
2017-11-10T03:32:03.711Z,-88
2017-11-10T03:34:30.579Z,-87
2017-11-10T03:36:57.471Z,-85
2017-11-10T03:39:24.344Z,-84
2017-11-10T03:41:51.196Z,-83
2017-11-10T03:44:18.105Z,-83
2017-11-10T03:46:44.975Z,-87
2017-11-10T03:49:11.828Z,-87
2017-11-10T03:51:38.713Z,-84
2017-11-10T03:54:05.590Z,-86
2017-11-10T03:56:33.236Z,-85
2017-11-10T03:59:00.060Z,-87
2017-11-10T04:01:26.906Z,-84
2017-11-10T04:03:53.751Z,-83
2017-11-10T04:06:21.353Z,-86
2017-11-10T04:08:48.219Z,-83
2017-11-10T04:11:15.161Z,-87
2017-11-10T04:13:42.809Z,-85
2017-11-10T04:16:09.676Z,-86
2017-11-10T04:18:37.292Z,-88
2017-11-10T04:21:04.140Z,-87
2017-11-10T04:23:31.798Z,-87
2017-11-10T04:25:58.658Z,-90
2017-11-10T04:28:25.535Z,-86
2017-11-10T04:30:53.188Z,-90
2017-11-10T04:33:20.135Z,-90
2017-11-10T04:35:47.038Z,-85
2017-11-10T04:38:14.611Z,-85
2017-11-10T04:40:42.232Z,-83
2017-11-10T04:43:09.061Z,-84
2017-11-10T04:45:36.671Z,-85
2017-11-10T04:48:03.572Z,-86
2017-11-10T04:50:30.468Z,-87
2017-11-10T04:52:58.127Z,-84
2017-11-10T04:55:24.985Z,-84
2017-11-10T04:57:51.894Z,-84
2017-11-10T05:00:18.808Z,-86
2017-11-10T05:02:45.691Z,-86
2017-11-10T05:05:12.582Z,-87
2017-11-10T05:07:39.465Z,-87
2017-11-10T05:10:06.369Z,-87
2017-11-10T05:12:33.366Z,-87
2017-11-10T05:15:00.252Z,-86
2017-11-10T05:17:27.106Z,-84
2017-11-10T05:19:53.976Z,-84
2017-11-10T05:22:20.828Z,-83
2017-11-10T05:24:47.768Z,-84
2017-11-10T05:27:15.396Z,-85
2017-11-10T05:29:42.261Z,-84
2017-11-10T05:32:09.681Z,-84
2017-11-10T05:34:37.292Z,-86
2017-11-10T05:37:04.290Z,-86
2017-11-10T05:39:31.226Z,-84
2017-11-10T05:41:58.132Z,-84
2017-11-10T05:44:25.765Z,-86
2017-11-10T05:46:52.644Z,-87
2017-11-10T05:49:19.507Z,-85
2017-11-10T05:51:46.416Z,-87
2017-11-10T05:54:13.344Z,-87
2017-11-10T05:56:40.232Z,-87
2017-11-10T05:59:07.893Z,-85
2017-11-10T06:01:34.827Z,-84
2017-11-10T06:04:01.830Z,-84
2017-11-10T06:06:28.738Z,-85
2017-11-10T06:08:55.670Z,-85
2017-11-10T06:11:23.244Z,-87
2017-11-10T06:13:51.637Z,-85
2017-11-10T06:16:19.265Z,-85
2017-11-10T06:18:46.240Z,-83
2017-11-10T06:21:13.139Z,-87
2017-11-10T06:23:40.770Z,-84
2017-11-10T06:26:08.739Z,-84
2017-11-10T06:28:35.612Z,-83
2017-11-10T06:31:02.505Z,-83
2017-11-10T06:33:29.397Z,-85
2017-11-10T06:35:57.006Z,-86
2017-11-10T06:38:23.897Z,-87
2017-11-10T06:40:50.814Z,-88
2017-11-10T06:43:17.678Z,-86
2017-11-10T06:45:44.562Z,-84
2017-11-10T06:48:12.204Z,-86
2017-11-10T06:50:39.797Z,-85
2017-11-10T06:53:06.632Z,-86
2017-11-10T06:55:33.490Z,-84
2017-11-10T06:58:07.923Z,-84
2017-11-10T07:00:34.848Z,-84
2017-11-10T07:03:01.719Z,-83
2017-11-10T07:05:28.589Z,-86
2017-11-10T07:07:55.468Z,-85
2017-11-10T07:10:22.372Z,-87
2017-11-10T07:12:49.315Z,-86
2017-11-10T07:15:16.936Z,-87
2017-11-10T07:17:43.769Z,-85
2017-11-10T07:20:10.680Z,-86
2017-11-10T07:22:37.527Z,-85
2017-11-10T07:25:04.381Z,-87
2017-11-10T07:27:31.285Z,-86
2017-11-10T07:29:58.161Z,-88
2017-11-10T07:32:25.769Z,-86
2017-11-10T07:34:52.582Z,-88
2017-11-10T07:37:19.418Z,-83
2017-11-10T07:39:46.273Z,-84
2017-11-10T07:42:13.101Z,-83
2017-11-10T07:44:39.913Z,-85
2017-11-10T07:47:06.732Z,-86
2017-11-10T07:49:33.577Z,-86
2017-11-10T07:52:00.408Z,-85
2017-11-10T07:54:27.250Z,-86
2017-11-10T07:56:54.120Z,-85
2017-11-10T07:59:20.939Z,-84
2017-11-10T08:01:47.791Z,-85
2017-11-10T08:04:14.638Z,-84
2017-11-10T08:06:41.476Z,-82
2017-11-10T08:09:08.312Z,-85
2017-11-10T08:11:35.136Z,-84
2017-11-10T08:14:01.985Z,-82
2017-11-10T08:16:28.836Z,-83
2017-11-10T08:18:56.457Z,-84
2017-11-10T08:21:23.289Z,-85
2017-11-10T08:23:50.084Z,-85
2017-11-10T08:26:16.915Z,-82
2017-11-10T08:28:43.774Z,-83
2017-11-10T08:31:10.645Z,-84
2017-11-10T08:33:38.268Z,-84
2017-11-10T08:36:05.084Z,-85
2017-11-10T08:38:31.919Z,-83
2017-11-10T08:40:59.520Z,-84
2017-11-10T08:43:26.352Z,-84
2017-11-10T08:45:53.984Z,-84
2017-11-10T08:48:20.780Z,-85
2017-11-10T08:50:47.625Z,-82
2017-11-10T08:53:14.461Z,-83
2017-11-10T08:55:41.317Z,-82
2017-11-10T08:58:08.952Z,-84
2017-11-10T09:00:36.512Z,-83
2017-11-10T09:03:03.334Z,-83
2017-11-10T09:05:30.174Z,-85
2017-11-10T09:07:57.069Z,-88
2017-11-10T09:10:23.954Z,-87
2017-11-10T09:12:50.796Z,-86
2017-11-10T09:15:17.586Z,-83
2017-11-10T09:17:45.472Z,-83
2017-11-10T09:20:13.407Z,-83
2017-11-10T09:22:40.363Z,-84
2017-11-10T09:25:07.276Z,-83
2017-11-10T09:27:34.251Z,-83
2017-11-10T09:30:20.945Z,-84
2017-11-10T09:46:30.121Z,-84
2017-11-10T09:49:03.195Z,-83
2017-11-10T09:51:36.497Z,-83
2017-11-10T09:54:09.641Z,-82
2017-11-10T09:56:44.361Z,-83
2017-11-10T09:59:13.116Z,-83
2017-11-10T10:01:49.873Z,-83
2017-11-10T10:17:45.955Z,-85
2017-11-10T10:20:26.714Z,-84
2017-11-10T10:22:55.673Z,-83
2017-11-10T10:25:22.572Z,-82
2017-11-10T10:27:49.455Z,-83
2017-11-10T10:30:16.400Z,-82
2017-11-10T10:32:43.250Z,-82
2017-11-10T10:35:10.172Z,-83
2017-11-10T10:37:37.113Z,-94
2017-11-10T10:40:04.084Z,-94
2017-11-10T10:42:30.967Z,-94
2017-11-10T10:44:57.886Z,-93
2017-11-10T10:47:24.750Z,-95
2017-11-10T10:49:51.610Z,-94
2017-11-10T10:52:18.446Z,-94
2017-11-10T10:54:46.038Z,-94
2017-11-10T10:57:12.893Z,-93
2017-11-10T10:59:40.377Z,-95
2017-11-10T11:02:07.234Z,-95
2017-11-10T11:04:34.032Z,-95
2017-11-10T11:07:00.914Z,-95
2017-11-10T11:09:27.831Z,-95
2017-11-10T11:11:54.803Z,-95
2017-11-10T11:14:21.652Z,-95
2017-11-10T11:16:48.533Z,-96
2017-11-10T11:19:15.384Z,-96
2017-11-10T11:21:42.292Z,-95
2017-11-10T11:24:09.141Z,-96
2017-11-10T11:26:36.457Z,-94
2017-11-10T11:29:03.301Z,-93
2017-11-10T11:31:31.697Z,-95
2017-11-10T11:33:59.329Z,-94
2017-11-10T11:36:26.207Z,-95
2017-11-10T11:38:53.079Z,-94
2017-11-10T11:41:19.958Z,-94
2017-11-10T11:43:47.089Z,-94
2017-11-10T11:46:13.963Z,-90
2017-11-10T11:48:40.850Z,-90
2017-11-10T11:51:08.579Z,-90
2017-11-10T11:53:35.458Z,-91
2017-11-10T11:56:02.391Z,-91
2017-11-10T11:58:29.346Z,-91
2017-11-10T12:00:56.237Z,-93
2017-11-10T12:03:23.143Z,-90
2017-11-10T12:05:50.061Z,-90
2017-11-10T12:08:17.879Z,-89
2017-11-10T12:10:45.605Z,-91
2017-11-10T12:13:12.537Z,-93
2017-11-10T12:15:40.287Z,-91
2017-11-10T12:18:07.173Z,-89
2017-11-10T12:20:34.296Z,-90
2017-11-10T12:23:01.354Z,-89
2017-11-10T12:25:28.313Z,-89
2017-11-10T12:27:55.233Z,-90
2017-11-10T12:30:22.954Z,-87
2017-11-10T12:32:49.893Z,-90
2017-11-10T12:35:17.533Z,-87
2017-11-10T12:37:44.437Z,-90
2017-11-10T12:40:12.094Z,-92
2017-11-10T12:42:39.007Z,-92
2017-11-10T12:45:06.629Z,-92
2017-11-10T12:47:33.654Z,-92
2017-11-10T12:50:00.617Z,-93
2017-11-10T12:52:29.112Z,-92
2017-11-10T12:54:55.988Z,-94
2017-11-10T12:57:22.845Z,-92
2017-11-10T12:59:50.492Z,-93
2017-11-10T13:02:20.158Z,-92
2017-11-10T13:04:47.843Z,-92
2017-11-10T13:07:14.702Z,-92
2017-11-10T13:09:41.548Z,-92
2017-11-10T13:12:08.455Z,-93
2017-11-10T13:14:35.603Z,-94
2017-11-10T13:17:02.503Z,-92
2017-11-10T13:19:29.398Z,-92
2017-11-10T13:21:56.342Z,-94
2017-11-10T13:24:24.020Z,-96
2017-11-10T13:26:51.596Z,-95
2017-11-10T13:29:19.167Z,-93
2017-11-10T13:31:46.002Z,-93
2017-11-10T13:34:12.824Z,-96
2017-11-10T13:36:39.712Z,-94
2017-11-10T13:39:06.568Z,-91
2017-11-10T13:41:33.382Z,-92
2017-11-10T13:44:01.068Z,-93
2017-11-10T13:46:27.905Z,-91
2017-11-10T13:48:54.781Z,-93
2017-11-10T13:51:22.370Z,-92
2017-11-10T13:53:49.192Z,-92
2017-11-10T13:56:16.069Z,-93
2017-11-10T13:58:43.017Z,-93
2017-11-10T14:01:09.988Z,-91
2017-11-10T14:03:36.853Z,-94
2017-11-10T14:06:03.782Z,-94
2017-11-10T14:08:30.629Z,-94
2017-11-10T14:10:59.354Z,-92
2017-11-10T14:13:28.711Z,-93
2017-11-10T14:15:55.646Z,-94
2017-11-10T14:18:26.281Z,-94
2017-11-10T14:20:53.241Z,-92
2017-11-10T14:23:20.142Z,-93
2017-11-10T14:25:47.044Z,-93
2017-11-10T14:28:13.906Z,-95
2017-11-10T14:30:40.819Z,-94
2017-11-10T14:33:07.912Z,-94
2017-11-10T14:35:38.980Z,-95
2017-11-10T14:51:05.596Z,-94
2017-11-10T14:53:33.234Z,-94
2017-11-10T14:56:00.891Z,-96
2017-11-10T14:58:28.984Z,-85
2017-11-10T15:00:55.928Z,-83
2017-11-10T15:03:22.803Z,-83
2017-11-10T15:05:49.783Z,-83
2017-11-10T15:08:16.726Z,-84
2017-11-10T15:10:43.666Z,-85
2017-11-10T15:13:12.313Z,-84
2017-11-10T15:15:39.660Z,-93
2017-11-10T15:18:06.515Z,-90
2017-11-10T15:20:33.402Z,-90
2017-11-10T15:23:00.319Z,-92
2017-11-10T15:25:27.241Z,-91
2017-11-10T15:27:54.517Z,-93
2017-11-10T15:30:21.512Z,-93
2017-11-10T15:32:49.869Z,-92
2017-11-10T15:35:18.934Z,-93
2017-11-10T15:37:45.800Z,-92
2017-11-10T15:40:12.788Z,-91
2017-11-10T15:42:39.714Z,-91
2017-11-10T15:45:06.587Z,-92
2017-11-10T15:47:33.400Z,-91
2017-11-10T15:50:00.285Z,-93
2017-11-10T15:52:32.555Z,-93
2017-11-10T15:54:59.547Z,-94
2017-11-10T15:57:28.031Z,-94
2017-11-10T15:59:55.889Z,-94
2017-11-10T16:02:23.562Z,-93
2017-11-10T16:04:50.517Z,-95
2017-11-10T16:07:18.522Z,-95
2017-11-10T16:09:47.210Z,-92
2017-11-10T16:12:14.864Z,-85
2017-11-10T16:14:41.746Z,-85
2017-11-10T16:17:08.609Z,-85
2017-11-10T16:19:35.527Z,-84
2017-11-10T16:22:02.406Z,-83
2017-11-10T16:24:29.289Z,-83
2017-11-10T16:26:56.955Z,-82
2017-11-10T16:29:25.072Z,-85
2017-11-10T16:31:51.940Z,-84
2017-11-10T16:34:18.815Z,-84
2017-11-10T16:36:45.694Z,-84
2017-11-10T16:39:13.301Z,-84
2017-11-10T16:41:40.191Z,-83
2017-11-10T16:44:07.186Z,-83
2017-11-10T16:46:35.805Z,-84
2017-11-10T16:49:03.477Z,-84
2017-11-10T16:51:30.352Z,-83
2017-11-10T16:53:57.988Z,-86
2017-11-10T16:56:25.104Z,-85
2017-11-10T16:58:52.702Z,-84
2017-11-10T17:01:20.046Z,-84
2017-11-10T17:03:47.697Z,-85
2017-11-10T17:06:14.636Z,-84
2017-11-10T17:08:41.538Z,-84
2017-11-10T17:11:08.437Z,-84
2017-11-10T17:13:35.396Z,-85
2017-11-10T17:16:02.323Z,-82
2017-11-10T17:18:29.565Z,-83
2017-11-10T17:20:56.447Z,-82
2017-11-10T17:23:23.321Z,-83
2017-11-10T17:25:50.190Z,-83
2017-11-10T17:28:17.122Z,-84
2017-11-10T17:30:44.027Z,-84
2017-11-10T17:33:11.653Z,-86
2017-11-10T17:35:38.576Z,-83
2017-11-10T17:38:05.520Z,-85
2017-11-10T17:40:33.159Z,-84
2017-11-10T17:43:00.015Z,-85
2017-11-10T17:45:26.865Z,-92
2017-11-10T17:47:53.775Z,-92
2017-11-10T17:50:20.725Z,-92
2017-11-10T17:52:50.426Z,-92
2017-11-10T17:55:17.395Z,-91
2017-11-10T17:57:44.341Z,-92
2017-11-10T18:00:11.279Z,-91
2017-11-10T18:02:38.854Z,-93
2017-11-10T18:05:08.673Z,-93
2017-11-10T18:07:35.554Z,-93
2017-11-10T18:10:02.419Z,-83
2017-11-10T18:12:29.316Z,-85
2017-11-10T18:14:56.191Z,-84
2017-11-10T18:17:23.081Z,-83
2017-11-10T18:19:49.963Z,-84
2017-11-10T18:22:17.642Z,-86
2017-11-10T18:24:44.494Z,-84
2017-11-10T18:27:12.115Z,-84
2017-11-10T18:29:43.973Z,-93
2017-11-10T18:32:12.516Z,-95
2017-11-10T18:34:39.432Z,-83
2017-11-10T18:37:06.366Z,-83
2017-11-10T18:39:34.064Z,-82
2017-11-10T18:42:01.691Z,-84
2017-11-10T18:44:28.621Z,-84
2017-11-10T18:46:56.010Z,-84
2017-11-10T18:49:27.660Z,-83
2017-11-10T18:51:54.555Z,-84
2017-11-10T18:54:21.451Z,-83
2017-11-10T18:56:48.326Z,-83
2017-11-10T18:59:15.998Z,-82
2017-11-10T19:01:43.609Z,-83
2017-11-10T19:04:11.981Z,-84
2017-11-10T19:06:39.695Z,-83
2017-11-10T19:09:06.591Z,-82
2017-11-10T19:11:33.425Z,-83
2017-11-10T19:14:00.285Z,-81
2017-11-10T19:16:27.105Z,-82
2017-11-10T19:18:54.750Z,-83
2017-11-10T19:21:22.010Z,-82
2017-11-10T19:23:48.951Z,-81
2017-11-10T19:26:17.528Z,-82
2017-11-10T19:28:44.490Z,-82
2017-11-10T19:31:13.695Z,-80
2017-11-10T19:33:41.497Z,-83
2017-11-10T19:36:10.290Z,-81
2017-11-10T19:38:38.535Z,-82
2017-11-10T19:41:06.593Z,-82
2017-11-10T19:43:33.588Z,-82
2017-11-10T19:46:01.738Z,-82
2017-11-10T19:48:28.777Z,-83
2017-11-10T19:50:57.448Z,-82
2017-11-10T19:53:27.002Z,-82
2017-11-10T19:55:54.722Z,-81
2017-11-10T19:58:24.425Z,-83
2017-11-10T20:00:52.845Z,-81
2017-11-10T20:03:21.730Z,-82
2017-11-10T20:05:49.679Z,-84
2017-11-10T20:08:16.736Z,-82
2017-11-10T20:10:46.267Z,-81
2017-11-10T20:13:14.126Z,-83
2017-11-10T20:15:42.996Z,-83
2017-11-10T20:18:12.954Z,-81
2017-11-10T20:20:40.817Z,-82
2017-11-10T20:23:10.557Z,-83
2017-11-10T20:25:40.355Z,-83
2017-11-10T20:28:09.194Z,-82
2017-11-10T20:30:38.172Z,-83
2017-11-10T20:33:07.411Z,-83
2017-11-10T20:35:36.811Z,-83
2017-11-10T20:38:06.451Z,-85
2017-11-10T20:40:36.450Z,-84
2017-11-10T20:43:06.384Z,-84
2017-11-10T20:45:35.394Z,-86
2017-11-10T20:48:04.246Z,-83
2017-11-10T20:50:34.330Z,-84
2017-11-10T20:55:45.039Z,-95
2017-11-10T20:58:13.509Z,-92
2017-11-10T21:00:43.227Z,-93
2017-11-10T21:03:15.358Z,-92
2017-11-10T21:05:44.394Z,-91
2017-11-10T21:08:12.271Z,-92
2017-11-10T21:10:41.152Z,-93
2017-11-10T21:13:10.128Z,-95
2017-11-10T21:15:39.294Z,-93
2017-11-10T21:18:07.901Z,-92
2017-11-10T21:20:35.616Z,-92
2017-11-10T21:23:03.530Z,-92
2017-11-10T21:25:31.845Z,-94
2017-11-10T21:28:01.427Z,-92
2017-11-10T21:30:30.503Z,-92
2017-11-10T21:32:58.076Z,-92
2017-11-10T21:35:26.220Z,-91
2017-11-10T21:37:54.060Z,-91
2017-11-10T21:40:21.947Z,-92
2017-11-10T21:42:50.415Z,-94
2017-11-10T21:45:18.069Z,-93
2017-11-10T21:47:44.976Z,-93
2017-11-10T21:50:12.121Z,-90
2017-11-10T21:52:39.195Z,-91
2017-11-10T21:55:06.560Z,-91
2017-11-10T21:57:33.513Z,-91
2017-11-10T22:00:00.490Z,-90
2017-11-10T22:02:27.352Z,-92
2017-11-10T22:04:54.263Z,-93
2017-11-10T22:07:22.001Z,-91
2017-11-10T22:09:48.904Z,-92
2017-11-10T22:12:16.458Z,-92
2017-11-10T22:14:43.292Z,-92
2017-11-10T22:17:10.156Z,-92
2017-11-10T22:19:37.048Z,-93
2017-11-10T22:22:03.979Z,-93
2017-11-10T22:24:35.229Z,-95
2017-11-10T22:27:02.169Z,-93
2017-11-10T22:29:29.035Z,-92
2017-11-10T22:31:55.916Z,-92
2017-11-10T22:34:22.748Z,-93
2017-11-10T22:36:49.595Z,-94
2017-11-10T22:39:16.480Z,-93
2017-11-10T22:41:43.345Z,-93
2017-11-10T22:44:10.194Z,-94
2017-11-10T22:46:37.801Z,-93
2017-11-10T22:49:04.669Z,-93
2017-11-10T22:51:31.522Z,-94
2017-11-10T22:53:58.408Z,-94
2017-11-10T22:56:25.264Z,-94
2017-11-10T22:58:52.141Z,-92
2017-11-10T23:01:19.028Z,-92
2017-11-10T23:03:46.611Z,-95
2017-11-10T23:06:14.218Z,-95
2017-11-10T23:08:41.107Z,-93
2017-11-10T23:11:08.009Z,-91
2017-11-10T23:13:34.861Z,-93
2017-11-10T23:16:01.708Z,-92
2017-11-10T23:18:28.604Z,-94
2017-11-10T23:20:56.203Z,-93
2017-11-10T23:23:23.101Z,-93
2017-11-10T23:25:49.949Z,-93
2017-11-10T23:28:16.792Z,-89
2017-11-10T23:30:43.672Z,-93
2017-11-10T23:33:10.609Z,-92
2017-11-10T23:35:37.452Z,-93
2017-11-10T23:38:04.322Z,-92
2017-11-10T23:40:31.898Z,-94
2017-11-10T23:42:58.708Z,-92
2017-11-10T23:45:25.539Z,-92
2017-11-10T23:47:52.365Z,-92
2017-11-10T23:50:19.279Z,-93
2017-11-10T23:52:46.096Z,-93
2017-11-10T23:55:13.683Z,-93
2017-11-10T23:57:41.247Z,-93
